This is the latest recevied weather packets stored in our database for station/object WE1C. If no packets are shown the sender has not sent any weather packets the latest 10 day(s).
| Time | Temp. | Humidity | Pressure | Rain* | Wind** | Luminosity | Snow |
|---|---|---|---|---|---|---|---|
| 1788465510 | 25° C | 83% | 1040.8 hPa | 0 mm | - | 135 W/m² | - |
| 1788465206 | 26.11° C | 82% | 1040.9 hPa | 0 mm | - | 147 W/m² | - |
| 1788464901 | 26.11° C | 81% | 1040.9 hPa | 0 mm | - | 179 W/m² | - |
| 1788464596 | 26.11° C | 78% | 1041 hPa | 0 mm | - | 207 W/m² | - |
| 1788464292 | 25.56° C | 79% | 1040.8 hPa | 0 mm | - | 245 W/m² | - |
| 1788463990 | 25° C | 81% | 1041 hPa | 0 mm | - | 247 W/m² | - |
| 1788463683 | 25.56° C | 82% | 1041.1 hPa | 0 mm | - | 200 W/m² | - |
| 1788463379 | 25° C | 82% | 1041.2 hPa | 0 mm | - | 705 W/m² | - |
| 1788463075 | 25° C | 85% | 1041.3 hPa | 0 mm | - | 177 W/m² | - |
| 1788462770 | 25.56° C | 83% | 1041.2 hPa | 0 mm | - | 203 W/m² | - |
| 1788462476 | 25.56° C | 82% | 1041.2 hPa | 0 mm | - | 286 W/m² | - |
| 1788462165 | 25.56° C | 80% | 1041.4 hPa | 0 mm | - | 262 W/m² | - |
| 1788461860 | 26.11° C | 77% | 1041.2 hPa | 0 mm | - | 281 W/m² | - |
| 1788461559 | 26.67° C | 75% | 1041.1 hPa | 0 mm | - | 261 W/m² | - |
| 1788461256 | 26.67° C | 77% | 1041.2 hPa | 0 mm | - | 359 W/m² | - |
| 1788460952 | 26.67° C | 75% | 1041.5 hPa | 0 mm | - | 291 W/m² | - |
| 1788460647 | 26.11° C | 77% | 1041.2 hPa | 0 mm | - | 861 W/m² | - |
| 1788460341 | 26.11° C | 75% | 1041.2 hPa | 0 mm | - | 813 W/m² | - |
| 1788460040 | 25.56° C | 78% | 1041.3 hPa | 0 mm | - | 407 W/m² | - |
| 1788459735 | 25.56° C | 81% | 1041.7 hPa | 0 mm | - | 285 W/m² | - |
| 1788459433 | 26.11° C | 78% | 1041.5 hPa | 0 mm | - | 222 W/m² | - |
| 1788459123 | 25.56° C | 80% | 1041.6 hPa | 0 mm | - | 613 W/m² | - |
| 1788458818 | 25° C | 81% | 1041.8 hPa | 0 mm | - | 728 W/m² | - |
| 1788458512 | 24.44° C | 84% | 1041.6 hPa | 0 mm | - | 423 W/m² | - |
| 1788458211 | 24.44° C | 85% | 1041.9 hPa | 0 mm | - | 315 W/m² | - |
* Rain latest hour (hover to see other rain measurements)
** Current wind speed in m/s (hover to see current wind gust speed)